Strona główna
METAR-TAF:

METAR-TAF

Lotnisko :

Chièvres, Belgia

Szerokość geograficzna: 50-34N, Długość geograficzna: 003-50E, wysokość: 60 m

Aktualna obserwacja pogody

Raport powstał 21 minut temu, godzina 00:54 UTC
Wiatr 6 kt od południe
Temperatura 12°C
Wilgotność 94%
Ciśnienie 1023 hPa
Widzialność 10 km lub więcej

METAR: EBCV 310054Z AUTO 18006KT 9999 FEW024/// SCT039/// 12/11 Q1023 BLU

czas: 02:15 (01:15 UTC)

Prognoza

Raport powstał 9 godziny i 34 minut temu, godzina 15:41 UTC
Prognoza ważna od 30 godzina 19 UTC do 31 godzina 07 UTC
Wiatr 8 kt od południowo-południowy zachód
Mało chmury na wysokości 2000 ft
Przerywane chmury na wysokości 3000 ft
Stopniowe zmiany
od 31 godzina 01 UTC do 31 godzina 03 UTC
Wiatr 8 kt od południe

TAF: EBCV 301541Z 3019/3107 20008KT FEW020 BKN030 BECMG 3101/3103 17008KT BY EBWM

Obserwacja i prognoza pogody dla ponad 4000 lotnisk (raport METAR i TAF).

Dostępne stacje oznaczono żółtymi i czerwonymi punktami na mapie.

Najedź kursorem aby zobaczyć nazwę stacji.

Kliknij aby zobaczyć obserwacje i prognozy pogody.

Aby zmienić mapę: kliknij na zielony przycisk z czarnym krzyżykiem, aby powiększyć; na zielony przycisk z myślnikiem, aby pomniejszyć; na zielone strzałki, aby przejść do map sąsiednich.


METAR-TAF: